Time;durP1;ratioP1;P1;durP2;ratioP2;P2;SDS_P1;SDS_P2;PMS_P1;PMS_P2;Temp;Humidity;BMP_temperature;BMP_pressure;BME280_temperature;BME280_humidity;BME280_pressure;Samples;Min_cycle;Max_cycle;Signal;HPM_P1;HPM_P2
2020/12/12 00:00:00;;;;;;;32.25;17.75;;;2.40;99.90;;;;;;5085395;28;20032;-72
2020/12/12 00:02:30;;;;;;;33.10;18.40;;;2.40;99.90;;;;;;5079885;28;20028;-73
2020/12/12 00:04:56;;;;;;;32.72;17.27;;;2.40;99.90;;;;;;5079954;28;20067;-73
2020/12/12 00:07:21;;;;;;;37.50;18.48;;;2.40;99.90;;;;;;5079279;28;20028;-73
2020/12/12 00:09:47;;;;;;;31.83;17.70;;;2.40;99.90;;;;;;5080475;28;20032;-73
2020/12/12 00:12:14;;;;;;;30.20;17.00;;;2.40;99.90;;;;;;5083485;28;20020;-73
2020/12/12 00:14:39;;;;;;;30.95;16.95;;;2.40;99.90;;;;;;5072100;28;20060;-73
2020/12/12 00:17:05;;;;;;;32.13;17.58;;;2.40;99.90;;;;;;5077086;28;20052;-73
2020/12/12 00:19:30;;;;;;;34.97;18.38;;;2.40;99.90;;;;;;5081555;28;20059;-73
2020/12/12 00:21:56;;;;;;;30.30;16.65;;;2.40;99.90;;;;;;5071001;28;20033;-73
2020/12/12 00:24:22;;;;;;;34.42;18.52;;;2.40;99.90;;;;;;5085861;28;20028;-73
2020/12/12 00:26:48;;;;;;;35.72;18.65;;;2.50;99.90;;;;;;5071451;28;20230;-73
2020/12/12 00:29:15;;;;;;;33.90;19.27;;;2.50;99.90;;;;;;5075058;28;20033;-73
2020/12/12 00:31:44;;;;;;;33.72;19.15;;;2.50;99.90;;;;;;5089993;28;20509;-72
2020/12/12 00:34:09;;;;;;;33.67;17.75;;;2.50;99.90;;;;;;5072443;28;20126;-73
2020/12/12 00:36:42;;;;;;;31.73;17.55;;;2.50;99.90;;;;;;5076051;28;20063;-73
2020/12/12 00:39:08;;;;;;;33.60;18.80;;;2.50;99.90;;;;;;5071074;28;20067;-73
2020/12/12 00:41:38;;;;;;;37.85;18.23;;;2.50;99.90;;;;;;5074494;28;20019;-73
2020/12/12 00:44:04;;;;;;;;;;;2.50;99.90;;;;;;5090770;28;20105;-73
2020/12/12 00:46:30;;;;;;;30.70;16.92;;;2.50;99.90;;;;;;5070241;28;19923;-73
2020/12/12 00:48:56;;;;;;;31.38;17.30;;;2.50;99.90;;;;;;5088164;28;20032;-73
2020/12/12 00:51:22;;;;;;;30.65;16.50;;;2.50;99.90;;;;;;5094274;28;20035;-73
2020/12/12 00:53:48;;;;;;;31.70;17.98;;;2.50;99.90;;;;;;5090426;28;20565;-73
2020/12/12 00:56:14;;;;;;;32.75;18.00;;;2.50;99.90;;;;;;5083662;28;20028;-73
2020/12/12 00:58:40;;;;;;;32.05;17.35;;;2.50;99.90;;;;;;5090914;28;20429;-73
2020/12/12 01:01:06;;;;;;;28.65;15.55;;;2.60;99.90;;;;;;5082405;28;20158;-73
2020/12/12 01:03:32;;;;;;;31.25;17.48;;;2.60;99.90;;;;;;5074449;28;20057;-72
2020/12/12 01:05:58;;;;;;;33.30;17.50;;;2.60;99.90;;;;;;5075458;28;20125;-73
2020/12/12 01:08:23;;;;;;;32.03;17.45;;;2.60;99.90;;;;;;5094283;28;20059;-73
2020/12/12 01:10:49;;;;;;;27.95;15.90;;;2.60;99.90;;;;;;5093382;28;20103;-73
2020/12/12 01:13:15;;;;;;;33.83;17.90;;;2.60;99.90;;;;;;5086815;28;20056;-73
2020/12/12 01:15:40;;;;;;;30.02;16.88;;;2.60;99.90;;;;;;5072991;28;20107;-73
2020/12/12 01:18:06;;;;;;;29.27;16.33;;;2.60;99.90;;;;;;5074931;28;20099;-73
2020/12/12 01:20:32;;;;;;;28.75;16.83;;;2.70;99.90;;;;;;5073366;28;20029;-73
2020/12/12 01:22:57;;;;;;;29.27;16.25;;;2.70;99.90;;;;;;5074325;28;20106;-72
2020/12/12 01:25:23;;;;;;;25.73;15.52;;;2.70;99.90;;;;;;5086292;28;20033;-73
2020/12/12 01:27:50;;;;;;;27.80;16.23;;;2.70;99.90;;;;;;5073373;28;20123;-72
2020/12/12 01:30:16;;;;;;;24.63;15.00;;;2.60;99.90;;;;;;5074885;28;20082;-73
2020/12/12 01:32:41;;;;;;;27.17;15.20;;;2.70;99.90;;;;;;5093022;28;20032;-73
2020/12/12 01:35:07;;;;;;;29.92;16.92;;;2.70;99.90;;;;;;5093654;28;20107;-72
2020/12/12 01:37:33;;;;;;;28.98;15.85;;;2.70;99.90;;;;;;5083921;28;20078;-72
2020/12/12 01:39:58;;;;;;;31.35;17.55;;;2.70;99.90;;;;;;5075610;28;20373;-72
2020/12/12 01:42:24;;;;;;;30.67;17.05;;;2.60;99.90;;;;;;5073772;28;20057;-73
2020/12/12 01:44:58;;;;;;;27.17;15.85;;;2.60;99.90;;;;;;5072476;28;20017;-72
2020/12/12 01:47:24;;;;;;;28.58;16.20;;;2.60;99.90;;;;;;5075720;28;20032;-72
2020/12/12 01:49:51;;;;;;;29.67;15.98;;;2.60;99.90;;;;;;5091791;28;20123;-72
2020/12/12 01:52:17;;;;;;;29.30;16.92;;;2.60;99.90;;;;;;5088674;28;20029;-72
2020/12/12 01:54:49;;;;;;;37.90;18.98;;;2.70;99.90;;;;;;5074810;28;20381;-72
2020/12/12 01:57:19;;;;;;;32.95;18.00;;;2.60;99.90;;;;;;5073770;28;20123;-73
2020/12/12 01:59:46;;;;;;;29.75;17.05;;;2.60;99.90;;;;;;5071776;28;20389;-72
2020/12/12 02:02:13;;;;;;;28.17;16.83;;;2.60;99.90;;;;;;5081379;28;20031;-72
2020/12/12 02:04:42;;;;;;;33.53;17.45;;;2.60;99.90;;;;;;5072411;28;20478;-72
2020/12/12 02:07:08;;;;;;;26.23;16.10;;;2.60;99.90;;;;;;5084622;28;20031;-73
2020/12/12 02:09:34;;;;;;;28.85;16.08;;;2.60;99.90;;;;;;5072582;28;20045;-72
2020/12/12 02:12:00;;;;;;;27.42;16.23;;;2.60;99.90;;;;;;5073754;28;20466;-73
2020/12/12 02:14:26;;;;;;;29.42;15.88;;;2.60;99.90;;;;;;5083590;28;20169;-72
2020/12/12 02:16:57;;;;;;;27.50;16.02;;;2.50;99.90;;;;;;5075527;28;20508;-72
2020/12/12 02:19:23;;;;;;;30.80;17.35;;;2.50;99.90;;;;;;5093164;28;20040;-72
2020/12/12 02:21:54;;;;;;;32.88;17.70;;;2.60;99.90;;;;;;5073249;28;20433;-72
2020/12/12 02:24:20;;;;;;;35.75;19.70;;;2.60;99.90;;;;;;5081716;28;20033;-72
2020/12/12 02:26:47;;;;;;;37.38;19.98;;;2.60;99.90;;;;;;5082128;28;20048;-72
2020/12/12 02:29:13;;;;;;;33.95;18.80;;;2.60;99.90;;;;;;5091908;28;20031;-72
2020/12/12 02:31:39;;;;;;;33.80;17.38;;;2.50;99.90;;;;;;5091634;28;20028;-72
2020/12/12 02:34:05;;;;;;;35.65;18.52;;;2.50;99.90;;;;;;5075297;28;20103;-73
2020/12/12 02:36:40;;;;;;;34.30;19.20;;;2.60;99.90;;;;;;5082735;28;20028;-73
2020/12/12 02:39:08;;;;;;;31.67;18.02;;;2.50;99.90;;;;;;5084823;28;20039;-73
2020/12/12 02:41:35;;;;;;;31.63;17.65;;;2.50;99.90;;;;;;5091514;28;20089;-72
2020/12/12 02:44:01;;;;;;;31.60;18.35;;;2.50;99.90;;;;;;5092015;28;20546;-73
2020/12/12 02:46:26;;;;;;;30.13;16.58;;;2.50;99.90;;;;;;5056467;28;20028;-73
2020/12/12 02:48:52;;;;;;;30.15;17.25;;;2.50;99.90;;;;;;5071755;28;20296;-73
2020/12/12 02:51:18;;;;;;;30.75;16.83;;;2.50;99.90;;;;;;5079646;28;20085;-73
2020/12/12 02:53:45;;;;;;;29.75;16.33;;;2.50;99.90;;;;;;5072871;28;20523;-73
2020/12/12 02:56:14;;;;;;;34.45;17.50;;;2.50;99.90;;;;;;5073371;28;20466;-73
2020/12/12 02:58:40;;;;;;;34.35;18.27;;;2.50;99.90;;;;;;5087304;28;20043;-73
2020/12/12 03:01:06;;;;;;;31.65;17.85;;;2.50;99.90;;;;;;5083305;28;20040;-73
2020/12/12 03:03:32;;;;;;;35.83;17.88;;;2.50;99.90;;;;;;5071513;28;20032;-72
2020/12/12 03:05:59;;;;;;;32.63;17.65;;;2.40;99.90;;;;;;5087056;28;20043;-73
2020/12/12 03:08:24;;;;;;;31.45;17.77;;;2.40;99.90;;;;;;5091618;28;20039;-73
2020/12/12 03:10:50;;;;;;;31.17;16.83;;;2.50;99.90;;;;;;5075046;28;20029;-73
2020/12/12 03:13:15;;;;;;;35.00;18.65;;;2.50;99.90;;;;;;5089148;28;20024;-73
2020/12/12 03:15:41;;;;;;;31.60;17.80;;;2.40;99.90;;;;;;5075625;28;20103;-73
2020/12/12 03:18:08;;;;;;;29.27;16.33;;;2.40;99.90;;;;;;5091539;28;20584;-73
2020/12/12 03:20:33;;;;;;;31.95;17.13;;;2.40;99.90;;;;;;5091039;28;20028;-72
2020/12/12 03:22:59;;;;;;;33.08;17.23;;;2.40;99.90;;;;;;5077528;28;20386;-74
2020/12/12 03:25:25;;;;;;;32.08;18.65;;;2.40;99.90;;;;;;5078804;28;20035;-73
2020/12/12 03:27:50;;;;;;;34.22;18.67;;;2.50;99.90;;;;;;5074596;28;20047;-73
2020/12/12 03:30:16;;;;;;;32.60;17.52;;;2.40;99.90;;;;;;5091331;28;20469;-73
2020/12/12 03:32:41;;;;;;;35.45;18.25;;;2.50;99.90;;;;;;5089543;28;20028;-73
2020/12/12 03:35:07;;;;;;;34.90;18.80;;;2.40;99.90;;;;;;5089399;28;20114;-74
2020/12/12 03:37:33;;;;;;;35.40;18.33;;;2.50;99.90;;;;;;5090660;28;20027;-72
2020/12/12 03:39:59;;;;;;;30.77;17.05;;;2.50;99.90;;;;;;5080203;28;20058;-73
2020/12/12 03:42:24;;;;;;;28.60;16.42;;;2.50;99.90;;;;;;5071616;28;20025;-73
2020/12/12 03:44:50;;;;;;;28.35;15.30;;;2.50;99.90;;;;;;5070603;28;20024;-72
2020/12/12 03:47:16;;;;;;;29.20;16.90;;;2.50;99.90;;;;;;5082404;28;20036;-72
2020/12/12 03:49:42;;;;;;;31.40;17.27;;;2.50;99.90;;;;;;5090166;28;20035;-72
2020/12/12 03:52:07;;;;;;;28.20;15.77;;;2.40;99.90;;;;;;5082681;28;20036;-73
2020/12/12 03:54:33;;;;;;;25.88;14.35;;;2.50;99.90;;;;;;5090987;28;20480;-73
2020/12/12 03:56:59;;;;;;;25.10;13.93;;;2.50;99.90;;;;;;5090695;28;20099;-73
2020/12/12 03:59:24;;;;;;;27.42;14.90;;;2.40;99.90;;;;;;5082400;28;20427;-74
2020/12/12 04:01:50;;;;;;;26.75;14.90;;;2.50;99.90;;;;;;5070809;28;20031;-73
2020/12/12 04:04:16;;;;;;;33.13;18.02;;;2.50;99.90;;;;;;5076779;28;20024;-73
2020/12/12 04:06:41;;;;;;;31.17;16.15;;;2.50;99.90;;;;;;5076494;28;20052;-73
2020/12/12 04:09:07;;;;;;;30.35;16.05;;;2.50;99.90;;;;;;5083361;28;20032;-73
2020/12/12 04:11:33;;;;;;;35.38;18.35;;;2.50;99.90;;;;;;5084472;28;20476;-74
2020/12/12 04:13:58;;;;;;;34.92;18.52;;;2.60;99.90;;;;;;5070810;28;20032;-73
2020/12/12 04:16:24;;;;;;;33.10;17.67;;;2.60;99.90;;;;;;5075624;28;20036;-73
2020/12/12 04:18:50;;;;;;;28.10;17.00;;;2.60;99.90;;;;;;5089903;28;20041;-73
2020/12/12 04:21:15;;;;;;;27.38;15.40;;;2.60;99.90;;;;;;5071840;28;20090;-74
2020/12/12 04:23:43;;;;;;;32.53;17.83;;;2.60;99.90;;;;;;5078728;28;20032;-73
2020/12/12 04:26:13;;;;;;;30.02;15.80;;;2.60;99.90;;;;;;5075808;28;20494;-73
2020/12/12 04:28:39;;;;;;;31.80;15.80;;;2.60;99.90;;;;;;5075999;28;20039;-73
2020/12/12 04:31:06;;;;;;;30.95;16.85;;;2.60;99.90;;;;;;5080077;28;20024;-74
2020/12/12 04:33:32;;;;;;;32.72;16.42;;;2.60;99.90;;;;;;5058448;28;20035;-74
2020/12/12 04:35:58;;;;;;;25.88;13.95;;;2.60;99.90;;;;;;5093616;28;20359;-74
2020/12/12 04:38:23;;;;;;;25.02;13.48;;;2.60;99.90;;;;;;5094429;28;20031;-73
2020/12/12 04:40:52;;;;;;;27.98;15.57;;;2.60;99.90;;;;;;5077069;28;20082;-74
2020/12/12 04:43:18;;;;;;;28.42;15.02;;;2.60;99.90;;;;;;5092245;28;20024;-74
2020/12/12 04:45:46;;;;;;;29.50;15.20;;;2.70;99.90;;;;;;5089626;28;20108;-74
2020/12/12 04:48:12;;;;;;;25.33;14.45;;;2.70;99.90;;;;;;5081480;28;20031;-74
2020/12/12 04:50:38;;;;;;;24.13;14.18;;;2.70;99.90;;;;;;5093646;28;20035;-73
2020/12/12 04:53:17;;;;;;;23.65;13.77;;;2.70;99.90;;;;;;5081290;28;20029;-73
2020/12/12 04:55:49;;;;;;;27.48;15.57;;;2.70;99.90;;;;;;5092083;28;20028;-73
2020/12/12 04:58:37;;;;;;;26.80;14.65;;;2.70;99.90;;;;;;5071035;28;20044;-73
2020/12/12 05:01:03;;;;;;;25.00;13.75;;;2.80;99.90;;;;;;5086521;28;20032;-74
2020/12/12 05:03:31;;;;;;;25.45;14.07;;;2.80;99.90;;;;;;5094471;28;20036;-74
2020/12/12 05:05:57;;;;;;;28.75;14.82;;;2.80;99.90;;;;;;5076945;28;20729;-73
2020/12/12 05:08:22;;;;;;;27.33;14.93;;;2.80;99.90;;;;;;5067304;28;20127;-73
2020/12/12 05:10:50;;;;;;;26.38;14.15;;;2.80;99.90;;;;;;5086102;28;20029;-75
2020/12/12 05:13:21;;;;;;;22.63;13.50;;;2.80;99.90;;;;;;5082579;28;20024;-76
2020/12/12 05:15:49;;;;;;;26.45;14.93;;;2.80;99.90;;;;;;5073427;28;20369;-76
2020/12/12 05:18:15;;;;;;;23.20;14.27;;;2.80;99.90;;;;;;5074314;28;20354;-73
2020/12/12 05:20:41;;;;;;;22.77;13.82;;;2.90;99.90;;;;;;5085136;28;20081;-73
2020/12/12 05:23:11;;;;;;;23.95;14.30;;;2.90;99.90;;;;;;5092684;28;20476;-73
2020/12/12 05:25:38;;;;;;;24.23;14.30;;;2.90;99.90;;;;;;5082879;28;20115;-73
2020/12/12 05:28:05;;;;;;;22.50;13.60;;;2.90;99.90;;;;;;5078766;28;20118;-73
2020/12/12 05:30:32;;;;;;;23.55;14.25;;;2.90;99.90;;;;;;5093607;28;20036;-73
2020/12/12 05:32:58;;;;;;;21.67;13.35;;;2.90;99.90;;;;;;5081062;28;20150;-73
2020/12/12 05:35:24;;;;;;;21.40;12.98;;;2.90;99.90;;;;;;5080611;28;20470;-73
2020/12/12 05:37:50;;;;;;;21.38;13.23;;;2.90;99.90;;;;;;5083590;28;20028;-73
2020/12/12 05:40:16;;;;;;;24.00;13.70;;;2.90;99.90;;;;;;5092104;28;20051;-73
2020/12/12 05:42:43;;;;;;;23.63;13.75;;;2.90;99.90;;;;;;5083839;28;20056;-73
2020/12/12 05:45:08;;;;;;;21.27;12.70;;;2.90;99.90;;;;;;5083889;28;20040;-73
2020/12/12 05:47:34;;;;;;;22.90;13.65;;;2.90;99.90;;;;;;5093306;28;20376;-73
2020/12/12 05:50:00;;;;;;;28.35;15.18;;;2.90;99.90;;;;;;5092252;28;20460;-72
2020/12/12 05:52:28;;;;;;;22.38;13.77;;;2.90;99.90;;;;;;5073754;28;20028;-73
2020/12/12 05:54:55;;;;;;;23.20;13.32;;;2.90;99.90;;;;;;5079386;28;20065;-73
2020/12/12 05:57:22;;;;;;;23.98;14.18;;;2.90;99.90;;;;;;5065598;28;20025;-73
2020/12/12 05:59:48;;;;;;;22.75;14.35;;;3.00;99.90;;;;;;5072965;28;20373;-73
2020/12/12 06:02:16;;;;;;;24.50;14.48;;;3.00;99.90;;;;;;5073611;28;20476;-73
2020/12/12 06:04:50;;;;;;;25.42;14.02;;;3.00;99.90;;;;;;5054687;28;20024;-73
2020/12/12 06:07:30;;;;;;;25.70;14.23;;;3.00;99.90;;;;;;5081159;28;20388;-73
2020/12/12 06:10:06;;;;;;;22.88;13.48;;;3.10;99.90;;;;;;5079919;28;20033;-73
2020/12/12 06:12:33;;;;;;;21.27;13.63;;;3.10;99.90;;;;;;5073313;28;20036;-73
2020/12/12 06:14:59;;;;;;;24.27;13.98;;;3.10;99.90;;;;;;5074995;28;20040;-73
2020/12/12 06:17:43;;;;;;;20.83;13.25;;;3.10;99.90;;;;;;5073380;28;20029;-73
2020/12/12 06:20:13;;;;;;;25.65;14.70;;;3.10;99.90;;;;;;5064356;28;20024;-73
2020/12/12 06:22:40;;;;;;;20.60;13.30;;;3.10;99.90;;;;;;5072812;28;20432;-73
2020/12/12 06:25:08;;;;;;;23.58;12.93;;;3.10;99.90;;;;;;5075190;28;20033;-73
2020/12/12 06:27:44;;;;;;;21.67;12.88;;;3.10;99.90;;;;;;5092286;28;20040;-74
2020/12/12 06:30:12;;;;;;;24.20;14.10;;;3.10;99.90;;;;;;5073815;28;20048;-73
2020/12/12 06:32:40;;;;;;;24.50;14.45;;;3.10;99.90;;;;;;5056817;28;20504;-73
2020/12/12 06:35:06;;;;;;;22.45;14.63;;;3.10;99.90;;;;;;5072539;28;20025;-73
2020/12/12 06:37:38;;;;;;;27.52;14.43;;;3.10;99.90;;;;;;5079821;28;20034;-73
2020/12/12 06:40:15;;;;;;;26.00;16.00;;;3.10;99.90;;;;;;5085809;28;20126;-73
2020/12/12 06:42:43;;;;;;;28.83;15.70;;;3.10;99.90;;;;;;5054424;28;20426;-73
2020/12/12 06:45:18;;;;;;;22.23;13.98;;;3.10;99.90;;;;;;5080936;28;20024;-74
2020/12/12 06:48:01;;;;;;;25.13;14.05;;;3.10;99.90;;;;;;5071744;28;20444;-73
2020/12/12 06:50:32;;;;;;;23.30;14.10;;;3.10;99.90;;;;;;5072795;28;20025;-74
2020/12/12 06:52:58;;;;;;;24.52;14.32;;;3.10;99.90;;;;;;5087918;28;20047;-73
2020/12/12 06:55:24;;;;;;;25.88;14.75;;;3.10;99.90;;;;;;5073728;28;20066;-73
2020/12/12 06:57:56;;;;;;;24.98;13.63;;;3.10;99.90;;;;;;5075448;28;20028;-73
2020/12/12 07:00:30;;;;;;;24.38;14.50;;;3.10;99.90;;;;;;5072581;28;20024;-73
2020/12/12 07:02:56;;;;;;;22.60;13.70;;;3.10;99.90;;;;;;5080595;28;20125;-75
2020/12/12 07:05:23;;;;;;;20.67;13.07;;;3.10;99.90;;;;;;5088883;28;20481;-74
2020/12/12 07:07:49;;;;;;;22.80;13.88;;;3.10;99.90;;;;;;5069236;28;20107;-74
2020/12/12 07:10:15;;;;;;;17.90;12.18;;;3.10;99.90;;;;;;5076979;28;20078;-72
2020/12/12 07:12:41;;;;;;;22.27;12.75;;;3.10;99.90;;;;;;5073297;28;20033;-75
2020/12/12 07:15:07;;;;;;;21.00;12.90;;;3.10;99.90;;;;;;5075548;28;20028;-75
2020/12/12 07:17:33;;;;;;;25.95;14.85;;;3.10;99.90;;;;;;5083898;28;20476;-74
2020/12/12 07:20:00;;;;;;;29.95;15.50;;;3.10;99.90;;;;;;5089073;28;20024;-74
2020/12/12 07:22:30;;;;;;;22.40;13.77;;;3.10;99.90;;;;;;5073427;28;20032;-74
2020/12/12 07:24:57;;;;;;;21.52;12.52;;;3.20;99.90;;;;;;5081539;28;20115;-78
2020/12/12 07:27:24;;;;;;;21.90;12.32;;;3.20;99.90;;;;;;5075954;28;20115;-74
2020/12/12 07:29:50;;;;;;;20.45;12.20;;;3.20;99.90;;;;;;5090684;28;20456;-73
2020/12/12 07:32:15;;;;;;;21.17;12.70;;;3.20;99.90;;;;;;5072953;28;20036;-80
2020/12/12 07:34:41;;;;;;;23.45;13.82;;;3.20;99.90;;;;;;5079441;28;20457;-73
2020/12/12 07:37:09;;;;;;;22.95;13.38;;;3.30;99.90;;;;;;5079429;28;20020;-74
2020/12/12 07:39:37;;;;;;;33.47;17.98;;;3.30;99.90;;;;;;5080118;28;20150;-73
2020/12/12 07:42:04;;;;;;;39.78;21.77;;;3.30;99.90;;;;;;5070735;28;20168;-79
2020/12/12 07:44:32;;;;;;;27.23;15.80;;;3.30;99.90;;;;;;5088397;28;20103;-73
2020/12/12 07:47:06;;;;;;;21.27;13.57;;;3.40;99.90;;;;;;5083040;28;20431;-76
2020/12/12 07:49:33;;;;;;;20.52;11.63;;;3.40;99.90;;;;;;5079887;28;20036;-74
2020/12/12 07:52:12;;;;;;;17.45;11.77;;;3.40;99.90;;;;;;5075242;28;20036;-74
2020/12/12 07:57:36;;;;;;;17.38;10.88;;;3.50;99.90;;;;;;5075107;28;20044;-73
2020/12/12 08:00:09;;;;;;;19.15;10.85;;;3.50;99.90;;;;;;5071878;28;20114;-72
2020/12/12 08:02:35;;;;;;;15.88;10.00;;;3.60;99.90;;;;;;5086035;28;20032;-72
2020/12/12 08:05:03;;;;;;;15.18;10.43;;;3.60;99.90;;;;;;5079855;28;20435;-72
2020/12/12 08:07:35;;;;;;;15.40;9.75;;;3.60;99.90;;;;;;5075909;28;20115;-73
2020/12/12 08:10:05;;;;;;;16.02;10.02;;;3.60;99.90;;;;;;5077204;28;20043;-74
2020/12/12 08:12:32;;;;;;;;;;;3.70;99.90;;;;;;5077129;28;20116;-71
2020/12/12 08:15:01;;;;;;;10.20;7.30;;;3.70;99.90;;;;;;5078465;28;20355;-72
2020/12/12 08:17:30;;;;;;;11.07;7.05;;;3.70;99.90;;;;;;5079145;28;20382;-70
2020/12/12 08:19:56;;;;;;;9.35;6.45;;;3.70;99.90;;;;;;5081907;28;20482;-71
2020/12/12 08:22:24;;;;;;;6.75;5.63;;;3.80;99.90;;;;;;5066498;28;20060;-72
2020/12/12 08:24:51;;;;;;;10.65;5.10;;;3.90;99.90;;;;;;5080436;28;20040;-71
2020/12/12 08:27:27;;;;;;;7.47;5.40;;;3.90;99.90;;;;;;5061240;28;20420;-71
2020/12/12 08:29:56;;;;;;;10.43;5.57;;;3.90;99.90;;;;;;5080780;28;20036;-71
2020/12/12 08:32:28;;;;;;;6.65;5.47;;;4.00;99.90;;;;;;5077433;28;20031;-71
2020/12/12 08:35:24;;;;;;;8.00;5.45;;;4.00;99.90;;;;;;5090334;28;20023;-71
2020/12/12 08:38:03;;;;;;;8.88;6.00;;;4.00;99.90;;;;;;5058073;28;20019;-70
2020/12/12 08:40:34;;;;;;;8.55;6.03;;;4.10;99.90;;;;;;5084346;28;20027;-71
2020/12/12 08:43:08;;;;;;;7.03;5.43;;;4.10;99.90;;;;;;5078393;28;20401;-70
2020/12/12 08:45:37;;;;;;;6.82;5.00;;;4.10;99.90;;;;;;5080196;28;20031;-72
2020/12/12 08:48:14;;;;;;;8.95;5.60;;;4.10;99.90;;;;;;5084779;28;20054;-73
2020/12/12 08:50:45;;;;;;;7.03;5.43;;;4.20;99.90;;;;;;5073716;28;20057;-73
2020/12/12 08:53:29;;;;;;;8.10;5.57;;;4.10;99.90;;;;;;5064861;28;20109;-73
2020/12/12 08:56:15;;;;;;;7.43;5.22;;;4.20;99.90;;;;;;5070318;28;20020;-73
2020/12/12 08:59:02;;;;;;;7.32;5.15;;;4.20;99.90;;;;;;5087118;28;20032;-72
2020/12/12 09:01:28;;;;;;;8.45;5.18;;;4.20;99.90;;;;;;5090571;28;20066;-73
2020/12/12 09:03:57;;;;;;;6.53;5.05;;;4.30;99.90;;;;;;5078517;28;20036;-73
2020/12/12 09:06:24;;;;;;;6.25;5.00;;;4.30;99.90;;;;;;5077270;28;20029;-72
2020/12/12 09:09:16;;;;;;;6.18;4.93;;;4.40;99.90;;;;;;5070903;28;20040;-73
2020/12/12 09:11:48;;;;;;;6.93;5.05;;;4.50;99.90;;;;;;5081664;28;20060;-74
2020/12/12 09:14:15;;;;;;;5.70;4.43;;;4.40;99.90;;;;;;5094019;28;20069;-73
2020/12/12 09:16:57;;;;;;;5.20;4.10;;;4.60;99.90;;;;;;5079458;28;20111;-75
2020/12/12 09:19:23;;;;;;;4.95;4.15;;;4.60;99.90;;;;;;5063756;28;20035;-73
2020/12/12 09:21:49;;;;;;;8.27;4.70;;;4.60;99.90;;;;;;5080114;28;20035;-74
2020/12/12 09:24:16;;;;;;;7.13;5.07;;;4.60;99.90;;;;;;5081522;28;20103;-73
2020/12/12 09:26:42;;;;;;;5.63;3.97;;;4.70;99.90;;;;;;5052563;28;20132;-73
2020/12/12 09:29:08;;;;;;;4.80;3.67;;;4.70;99.90;;;;;;5067265;28;20029;-74
2020/12/12 09:31:34;;;;;;;5.28;3.45;;;4.80;99.90;;;;;;5062857;28;20063;-74
2020/12/12 09:33:59;;;;;;;6.07;4.25;;;4.80;99.90;;;;;;5064261;28;20063;-75
2020/12/12 09:36:25;;;;;;;6.18;4.00;;;4.80;99.90;;;;;;5071833;28;20359;-74
2020/12/12 09:38:51;;;;;;;5.28;4.03;;;4.90;99.90;;;;;;5062913;28;20025;-74
2020/12/12 09:41:16;;;;;;;4.05;2.95;;;5.00;99.90;;;;;;5067534;28;20024;-73
2020/12/12 09:43:43;;;;;;;7.07;3.78;;;5.00;99.90;;;;;;5060431;28;20063;-74
2020/12/12 09:46:09;;;;;;;4.55;3.53;;;5.10;99.90;;;;;;5070070;28;20032;-78
2020/12/12 09:48:36;;;;;;;4.60;3.25;;;5.10;99.90;;;;;;5065156;28;20043;-75
2020/12/12 09:51:03;;;;;;;3.42;2.88;;;5.20;99.90;;;;;;5073065;28;20382;-74
2020/12/12 09:53:29;;;;;;;3.67;3.00;;;5.20;99.90;;;;;;5060670;28;20028;-74
2020/12/12 09:55:56;;;;;;;4.55;3.58;;;5.20;99.90;;;;;;5059376;28;20021;-74
2020/12/12 09:58:22;;;;;;;4.00;3.30;;;5.30;99.90;;;;;;5057858;28;20461;-72
2020/12/12 10:00:48;;;;;;;4.97;3.28;;;5.30;99.90;;;;;;5056583;28;20037;-73
2020/12/12 10:03:14;;;;;;;4.50;3.45;;;5.30;99.90;;;;;;5055068;28;20554;-73
2020/12/12 10:05:39;;;;;;;3.70;2.78;;;5.30;99.90;;;;;;5060286;28;20067;-73
2020/12/12 10:08:06;;;;;;;4.45;3.22;;;5.40;99.90;;;;;;5052613;28;20033;-72
2020/12/12 10:10:32;;;;;;;4.90;3.80;;;5.40;99.90;;;;;;5056801;28;20024;-72
2020/12/12 10:12:58;;;;;;;4.22;3.47;;;5.40;99.90;;;;;;5057182;28;20083;-71
2020/12/12 10:15:24;;;;;;;4.15;2.97;;;5.40;99.90;;;;;;5052125;28;20056;-75
2020/12/12 10:17:50;;;;;;;4.50;3.03;;;5.50;99.90;;;;;;5059760;28;20036;-72
2020/12/12 10:20:17;;;;;;;3.55;3.10;;;5.50;99.90;;;;;;5053812;28;20033;-74
2020/12/12 10:22:43;;;;;;;3.38;2.70;;;5.60;99.90;;;;;;5052981;28;20055;-74
2020/12/12 10:25:09;;;;;;;3.53;3.20;;;5.70;99.90;;;;;;5065053;28;20024;-75
2020/12/12 10:27:36;;;;;;;5.32;2.40;;;5.80;99.90;;;;;;5085408;28;20113;-73
2020/12/12 10:30:08;;;;;;;3.47;2.85;;;5.80;99.90;;;;;;5083057;28;20119;-73
2020/12/12 10:32:34;;;;;;;2.85;2.42;;;5.80;99.90;;;;;;5092609;28;20035;-73
2020/12/12 10:35:00;;;;;;;2.80;2.60;;;5.90;99.90;;;;;;5072808;28;20085;-72
2020/12/12 10:37:25;;;;;;;6.82;2.63;;;6.00;99.90;;;;;;5092755;28;20412;-72
2020/12/12 10:39:56;;;;;;;3.05;2.75;;;6.00;99.90;;;;;;5092246;28;20157;-72
2020/12/12 10:42:22;;;;;;;3.33;2.47;;;6.10;99.90;;;;;;5062926;28;20044;-72
2020/12/12 10:44:47;;;;;;;3.38;2.53;;;6.10;99.90;;;;;;5073070;28;20385;-72
2020/12/12 10:47:13;;;;;;;2.92;2.42;;;6.20;99.90;;;;;;5088127;28;20032;-74
2020/12/12 10:49:39;;;;;;;2.63;2.35;;;6.30;99.90;;;;;;5081373;28;20570;-74
2020/12/12 10:52:06;;;;;;;3.35;2.35;;;6.40;99.90;;;;;;5083142;28;20078;-72
2020/12/12 10:54:32;;;;;;;2.78;2.40;;;6.40;99.90;;;;;;5076324;28;20028;-72
2020/12/12 10:56:58;;;;;;;2.83;2.42;;;6.40;99.90;;;;;;5070698;28;20240;-71
2020/12/12 10:59:24;;;;;;;2.88;2.35;;;6.50;99.90;;;;;;5054500;28;20059;-74
2020/12/12 11:01:54;;;;;;;3.38;2.40;;;6.50;99.90;;;;;;5090954;28;20481;-71
2020/12/12 11:04:20;;;;;;;;;;;6.50;99.90;;;;;;5092308;28;20467;-73
2020/12/12 11:06:46;;;;;;;6.07;2.38;;;6.50;99.90;;;;;;5090098;28;19908;-73
2020/12/12 11:09:12;;;;;;;2.97;2.30;;;6.60;99.90;;;;;;5090906;28;20043;-73
2020/12/12 11:11:39;;;;;;;2.42;1.83;;;6.60;99.90;;;;;;5091693;28;20032;-73
2020/12/12 11:14:06;;;;;;;2.50;2.30;;;6.60;99.90;;;;;;5063317;28;20070;-73
2020/12/12 11:16:32;;;;;;;3.08;2.00;;;6.50;99.90;;;;;;5060264;28;20020;-73
2020/12/12 11:18:57;;;;;;;3.38;2.75;;;6.50;99.90;;;;;;5077791;28;20055;-73
2020/12/12 11:21:24;;;;;;;3.28;2.10;;;6.50;99.90;;;;;;5090931;28;20558;-73
2020/12/12 11:23:50;;;;;;;2.47;2.20;;;6.50;99.90;;;;;;5073401;28;20036;-72
2020/12/12 11:26:16;;;;;;;3.67;2.78;;;6.50;99.90;;;;;;5081843;28;20331;-73
2020/12/12 11:28:44;;;;;;;4.15;2.13;;;6.60;99.90;;;;;;5091504;28;20388;-73
2020/12/12 11:31:11;;;;;;;2.58;2.08;;;6.50;99.90;;;;;;5090871;28;20027;-73
2020/12/12 11:33:39;;;;;;;2.40;2.20;;;6.50;99.90;;;;;;5054722;28;20041;-73
2020/12/12 11:38:56;;;;;;;2.60;2.30;;;6.50;99.90;;;;;;5081928;28;20373;-73
2020/12/12 11:41:53;;;;;;;2.67;2.40;;;6.60;99.90;;;;;;5071761;28;20025;-73
2020/12/12 11:46:56;;;;;;;4.75;3.95;;;6.50;99.90;;;;;;5071011;28;20043;-73
2020/12/12 11:49:23;;;;;;;6.40;3.25;;;6.60;99.90;;;;;;5076979;28;20037;-74
2020/12/12 11:51:49;;;;;;;3.72;3.15;;;6.60;99.90;;;;;;5068523;28;20040;-74
2020/12/12 11:54:15;;;;;;;3.75;3.03;;;6.60;99.90;;;;;;5085945;28;20104;-74
2020/12/12 11:56:41;;;;;;;3.95;2.90;;;6.60;99.90;;;;;;5081125;28;20031;-73
2020/12/12 11:59:07;;;;;;;4.55;3.05;;;6.60;99.90;;;;;;5090126;28;20024;-73
2020/12/12 12:01:32;;;;;;;4.45;3.17;;;6.60;99.90;;;;;;5090949;28;20024;-73
2020/12/12 12:03:58;;;;;;;6.03;4.45;;;6.60;99.90;;;;;;5076943;28;20077;-73
2020/12/12 12:06:24;;;;;;;6.28;5.07;;;6.60;99.90;;;;;;5064417;28;20039;-72
2020/12/12 12:11:30;;;;;;;5.63;3.92;;;6.70;99.90;;;;;;5075121;28;20039;-73
2020/12/12 12:13:59;;;;;;;4.75;3.10;;;6.80;99.90;;;;;;5090125;28;20377;-73
2020/12/12 12:16:25;;;;;;;5.13;2.63;;;6.80;99.90;;;;;;5060256;28;20508;-73
2020/12/12 12:18:51;;;;;;;2.90;2.55;;;6.80;99.90;;;;;;5077294;28;20028;-73
2020/12/12 12:21:17;;;;;;;3.13;2.60;;;6.90;99.90;;;;;;5072306;28;20203;-73
2020/12/12 12:23:43;;;;;;;3.22;1.98;;;6.90;99.90;;;;;;5055091;28;20450;-73
2020/12/12 12:26:09;;;;;;;3.28;2.70;;;6.90;99.90;;;;;;5073447;28;20028;-73
2020/12/12 12:28:35;;;;;;;2.53;2.33;;;6.90;99.90;;;;;;5082705;28;20040;-73
2020/12/12 12:31:01;;;;;;;3.30;2.10;;;6.90;99.90;;;;;;5070116;28;20432;-74
2020/12/12 12:33:26;;;;;;;3.25;2.70;;;6.90;99.90;;;;;;5079000;28;20028;-73
2020/12/12 12:35:52;;;;;;;3.53;2.60;;;6.80;99.90;;;;;;5090652;28;20020;-73
2020/12/12 12:38:18;;;;;;;2.80;2.45;;;6.80;99.90;;;;;;5089700;28;20092;-73
2020/12/12 12:40:44;;;;;;;3.30;2.50;;;6.80;99.90;;;;;;5088774;28;20024;-73
2020/12/12 12:43:10;;;;;;;2.80;2.47;;;6.80;99.90;;;;;;5086283;28;20036;-74
2020/12/12 12:45:35;;;;;;;2.50;2.30;;;6.80;99.90;;;;;;5063161;28;20122;-73
2020/12/12 12:48:01;;;;;;;6.65;3.53;;;6.90;99.90;;;;;;5093552;28;20028;-73
2020/12/12 12:50:39;;;;;;;9.13;2.92;;;6.90;99.90;;;;;;5075494;28;20034;-73
2020/12/12 12:53:08;;;;;;;3.33;2.78;;;6.90;99.90;;;;;;5076957;28;20047;-73
2020/12/12 12:55:34;;;;;;;4.70;3.25;;;6.90;99.90;;;;;;5083357;28;20063;-73
2020/12/12 12:58:00;;;;;;;6.68;4.00;;;6.90;99.90;;;;;;5088064;28;20051;-73